sensor_id;sensor_type;location;lat;lon;timestamp;pressure;altitude;pressure_sealevel;temperature;humidity
1207;BME280;593;53.184;8.216;2022-11-20T00:00:00;100920.91;;;3.93;100.00
1207;BME280;593;53.184;8.216;2022-11-20T00:02:26;100918.44;;;3.91;100.00
1207;BME280;593;53.184;8.216;2022-11-20T00:04:51;100920.91;;;3.93;100.00
1207;BME280;593;53.184;8.216;2022-11-20T00:07:16;100917.16;;;3.94;100.00
1207;BME280;593;53.184;8.216;2022-11-20T00:09:42;100925.22;;;3.94;100.00
1207;BME280;593;53.184;8.216;2022-11-20T00:12:07;100920.44;;;3.96;100.00
1207;BME280;593;53.184;8.216;2022-11-20T00:14:32;100909.69;;;3.96;100.00
1207;BME280;593;53.184;8.216;2022-11-20T00:16:58;100907.34;;;3.87;100.00
1207;BME280;593;53.184;8.216;2022-11-20T00:19:23;100913.41;;;3.95;100.00
1207;BME280;593;53.184;8.216;2022-11-20T00:21:49;100904.97;;;3.91;100.00
1207;BME280;593;53.184;8.216;2022-11-20T00:24:16;100913.78;;;3.98;100.00
1207;BME280;593;53.184;8.216;2022-11-20T00:26:42;100914.56;;;3.99;100.00
1207;BME280;593;53.184;8.216;2022-11-20T00:29:08;100911.88;;;3.99;100.00
1207;BME280;593;53.184;8.216;2022-11-20T00:31:35;100903.69;;;3.94;100.00
1207;BME280;593;53.184;8.216;2022-11-20T00:34:00;100911.56;;;3.95;100.00
1207;BME280;593;53.184;8.216;2022-11-20T00:36:27;100916.22;;;4.00;100.00
1207;BME280;593;53.184;8.216;2022-11-20T00:38:54;100905.81;;;3.92;100.00
1207;BME280;593;53.184;8.216;2022-11-20T00:41:20;100911.88;;;3.99;100.00
1207;BME280;593;53.184;8.216;2022-11-20T00:43:46;100913.28;;;4.01;100.00
1207;BME280;593;53.184;8.216;2022-11-20T00:46:19;100905.94;;;3.97;100.00
1207;BME280;593;53.184;8.216;2022-11-20T00:48:45;100913.91;;;4.03;100.00
1207;BME280;593;53.184;8.216;2022-11-20T00:51:15;100917.38;;;4.04;100.00
1207;BME280;593;53.184;8.216;2022-11-20T00:53:41;100921.72;;;4.05;100.00
1207;BME280;593;53.184;8.216;2022-11-20T00:56:10;100909.94;;;4.06;100.00
1207;BME280;593;53.184;8.216;2022-11-20T00:58:41;100909.09;;;4.05;100.00
1207;BME280;593;53.184;8.216;2022-11-20T01:03:41;100911.53;;;4.07;100.00
1207;BME280;593;53.184;8.216;2022-11-20T01:06:21;100911.78;;;4.05;100.00
1207;BME280;593;53.184;8.216;2022-11-20T01:08:47;100916.94;;;4.07;100.00
1207;BME280;593;53.184;8.216;2022-11-20T01:11:18;100919.63;;;4.07;100.00
1207;BME280;593;53.184;8.216;2022-11-20T01:13:45;100907.91;;;4.01;100.00
1207;BME280;593;53.184;8.216;2022-11-20T01:16:20;100916.94;;;4.07;100.00
1207;BME280;593;53.184;8.216;2022-11-20T01:18:48;100914.81;;;4.09;100.00
1207;BME280;593;53.184;8.216;2022-11-20T01:21:18;100909.94;;;4.06;100.00
1207;BME280;593;53.184;8.216;2022-11-20T01:23:44;100903.25;;;4.08;100.00
1207;BME280;593;53.184;8.216;2022-11-20T01:26:12;100908.41;;;4.10;100.00
1207;BME280;593;53.184;8.216;2022-11-20T01:28:39;100899.97;;;4.06;100.00
1207;BME280;593;53.184;8.216;2022-11-20T01:31:16;100886.88;;;3.98;100.00
1207;BME280;593;53.184;8.216;2022-11-20T01:33:42;100888.41;;;4.06;100.00
1207;BME280;593;53.184;8.216;2022-11-20T01:36:09;100897.38;;;4.11;100.00
1207;BME280;593;53.184;8.216;2022-11-20T01:38:34;100898.47;;;4.10;100.00
1207;BME280;593;53.184;8.216;2022-11-20T01:41:00;100890.59;;;4.09;100.00
1207;BME280;593;53.184;8.216;2022-11-20T01:43:26;100897.16;;;4.13;100.00
1207;BME280;593;53.184;8.216;2022-11-20T01:48:26;100872.59;;;4.09;100.00
1207;BME280;593;53.184;8.216;2022-11-20T01:50:54;100878.53;;;4.11;100.00
1207;BME280;593;53.184;8.216;2022-11-20T01:53:23;100877.75;;;4.11;100.00
1207;BME280;593;53.184;8.216;2022-11-20T01:55:53;100877.50;;;4.12;100.00
1207;BME280;593;53.184;8.216;2022-11-20T01:58:22;100874.00;;;4.12;100.00
1207;BME280;593;53.184;8.216;2022-11-20T02:00:51;100875.06;;;4.11;100.00
1207;BME280;593;53.184;8.216;2022-11-20T02:03:18;100873.28;;;4.05;100.00
1207;BME280;593;53.184;8.216;2022-11-20T02:05:49;100866.75;;;4.12;100.00
1207;BME280;593;53.184;8.216;2022-11-20T02:08:17;100860.19;;;4.08;100.00
1207;BME280;593;53.184;8.216;2022-11-20T02:10:43;100866.16;;;4.10;100.00
1207;BME280;593;53.184;8.216;2022-11-20T02:13:08;100855.41;;;4.10;100.00
1207;BME280;593;53.184;8.216;2022-11-20T02:15:53;100852.25;;;4.13;100.00
1207;BME280;593;53.184;8.216;2022-11-20T02:18:20;100847.66;;;4.14;100.00
1207;BME280;593;53.184;8.216;2022-11-20T02:20:49;100843.91;;;4.15;100.00
1207;BME280;593;53.184;8.216;2022-11-20T02:23:25;100851.41;;;4.13;100.00
1207;BME280;593;53.184;8.216;2022-11-20T02:25:54;100837.94;;;4.01;100.00
1207;BME280;593;53.184;8.216;2022-11-20T02:28:20;100847.53;;;4.09;100.00
1207;BME280;593;53.184;8.216;2022-11-20T02:30:45;100851.63;;;4.11;100.00
1207;BME280;593;53.184;8.216;2022-11-20T02:33:12;100844.06;;;4.08;100.00
1207;BME280;593;53.184;8.216;2022-11-20T02:35:46;100848.72;;;4.13;100.00
1207;BME280;593;53.184;8.216;2022-11-20T02:38:12;100848.72;;;4.13;100.00
1207;BME280;593;53.184;8.216;2022-11-20T02:40:38;100839.47;;;4.09;100.00
1207;BME280;593;53.184;8.216;2022-11-20T02:43:04;100841.22;;;4.15;100.00
1207;BME280;593;53.184;8.216;2022-11-20T02:45:29;100836.88;;;4.14;100.00
1207;BME280;593;53.184;8.216;2022-11-20T02:47:55;100834.69;;;4.11;100.00
1207;BME280;593;53.184;8.216;2022-11-20T02:50:20;100825.78;;;4.10;100.00
1207;BME280;593;53.184;8.216;2022-11-20T02:52:45;100820.16;;;4.12;100.00
1207;BME280;593;53.184;8.216;2022-11-20T02:55:11;100816.06;;;4.09;100.00
1207;BME280;593;53.184;8.216;2022-11-20T02:57:36;100821.81;;;4.13;100.00
1207;BME280;593;53.184;8.216;2022-11-20T03:00:04;100822.63;;;4.13;100.00
1207;BME280;593;53.184;8.216;2022-11-20T03:02:30;100820.75;;;4.14;100.00
1207;BME280;593;53.184;8.216;2022-11-20T03:04:56;100814.78;;;4.12;100.00
1207;BME280;593;53.184;8.216;2022-11-20T03:07:21;100807.78;;;4.11;100.00
1207;BME280;593;53.184;8.216;2022-11-20T03:09:47;100803.81;;;4.13;100.00
1207;BME280;593;53.184;8.216;2022-11-20T03:12:13;100802.97;;;4.13;100.00
1207;BME280;593;53.184;8.216;2022-11-20T03:14:38;100800.84;;;4.15;100.00
1207;BME280;593;53.184;8.216;2022-11-20T03:17:04;100799.56;;;4.17;100.00
1207;BME280;593;53.184;8.216;2022-11-20T03:19:29;100804.13;;;4.17;100.00
1207;BME280;593;53.184;8.216;2022-11-20T03:21:54;100794.44;;;4.16;100.00
1207;BME280;593;53.184;8.216;2022-11-20T03:24:20;100790.09;;;4.15;100.00
1207;BME280;593;53.184;8.216;2022-11-20T03:26:45;100787.66;;;4.13;100.00
1207;BME280;593;53.184;8.216;2022-11-20T03:29:10;100785.53;;;4.15;100.00
1207;BME280;593;53.184;8.216;2022-11-20T03:31:38;100782.59;;;4.17;100.00
1207;BME280;593;53.184;8.216;2022-11-20T03:34:06;100790.44;;;4.18;100.00
1207;BME280;593;53.184;8.216;2022-11-20T03:36:32;100782.13;;;4.20;100.00
1207;BME280;593;53.184;8.216;2022-11-20T03:38:58;100775.81;;;4.14;100.00
1207;BME280;593;53.184;8.216;2022-11-20T03:41:28;100780.25;;;4.20;100.00
1207;BME280;593;53.184;8.216;2022-11-20T03:43:56;100771.59;;;4.18;100.00
1207;BME280;593;53.184;8.216;2022-11-20T03:46:22;100766.81;;;4.20;100.00
1207;BME280;593;53.184;8.216;2022-11-20T03:48:48;100767.63;;;4.21;100.00
1207;BME280;593;53.184;8.216;2022-11-20T03:51:28;100748.69;;;4.16;100.00
1207;BME280;593;53.184;8.216;2022-11-20T03:53:55;100763.38;;;4.25;100.00
1207;BME280;593;53.184;8.216;2022-11-20T03:56:27;100761.75;;;4.24;100.00
1207;BME280;593;53.184;8.216;2022-11-20T03:58:53;100776.84;;;4.25;100.00
1207;BME280;593;53.184;8.216;2022-11-20T04:01:22;100772.75;;;4.22;100.00
1207;BME280;593;53.184;8.216;2022-11-20T04:03:48;100777.88;;;4.24;100.00
1207;BME280;593;53.184;8.216;2022-11-20T04:08:44;100775.81;;;4.26;100.00
1207;BME280;593;53.184;8.216;2022-11-20T04:11:10;100777.88;;;4.24;100.00
1207;BME280;593;53.184;8.216;2022-11-20T04:13:36;100777.09;;;4.23;100.00
1207;BME280;593;53.184;8.216;2022-11-20T04:16:02;100768.78;;;4.25;100.00
1207;BME280;593;53.184;8.216;2022-11-20T04:18:27;100774.16;;;4.25;100.00
1207;BME280;593;53.184;8.216;2022-11-20T04:20:52;100773.34;;;4.24;100.00
1207;BME280;593;53.184;8.216;2022-11-20T04:23:18;100766.91;;;4.25;100.00
1207;BME280;593;53.184;8.216;2022-11-20T04:25:43;100762.34;;;4.26;100.00
1207;BME280;593;53.184;8.216;2022-11-20T04:28:09;100758.56;;;4.27;100.00
1207;BME280;593;53.184;8.216;2022-11-20T04:30:34;100749.34;;;4.23;100.00
1207;BME280;593;53.184;8.216;2022-11-20T04:32:59;100763.38;;;4.25;100.00
1207;BME280;593;53.184;8.216;2022-11-20T04:35:25;100760.69;;;4.25;100.00
1207;BME280;593;53.184;8.216;2022-11-20T04:37:53;100750.50;;;4.27;100.00
1207;BME280;593;53.184;8.216;2022-11-20T04:40:18;100758.34;;;4.28;100.00
1207;BME280;593;53.184;8.216;2022-11-20T04:42:44;100752.97;;;4.28;100.00
1207;BME280;593;53.184;8.216;2022-11-20T04:45:09;100756.47;;;4.29;100.00
1207;BME280;593;53.184;8.216;2022-11-20T04:47:34;100754.84;;;4.28;100.00
1207;BME280;593;53.184;8.216;2022-11-20T04:50:00;100747.59;;;4.28;100.00
1207;BME280;593;53.184;8.216;2022-11-20T04:52:25;100741.13;;;4.29;100.00
1207;BME280;593;53.184;8.216;2022-11-20T04:54:51;100748.16;;;4.30;100.00
1207;BME280;593;53.184;8.216;2022-11-20T04:57:18;100734.34;;;4.27;100.00
1207;BME280;593;53.184;8.216;2022-11-20T04:59:43;100742.78;;;4.30;100.00
1207;BME280;593;53.184;8.216;2022-11-20T05:02:09;100741.97;;;4.30;100.00
1207;BME280;593;53.184;8.216;2022-11-20T05:04:35;100747.34;;;4.30;100.00
1207;BME280;593;53.184;8.216;2022-11-20T05:07:00;100742.78;;;4.30;100.00
1207;BME280;593;53.184;8.216;2022-11-20T05:09:26;100740.31;;;4.29;100.00
1207;BME280;593;53.184;8.216;2022-11-20T05:11:51;100743.34;;;4.32;100.00
1207;BME280;593;53.184;8.216;2022-11-20T05:14:16;100744.91;;;4.28;100.00
1207;BME280;593;53.184;8.216;2022-11-20T05:16:42;100747.91;;;4.32;100.00
1207;BME280;593;53.184;8.216;2022-11-20T05:19:07;100744.19;;;4.33;100.00
1207;BME280;593;53.184;8.216;2022-11-20T05:21:33;100740.88;;;4.31;100.00
1207;BME280;593;53.184;8.216;2022-11-20T05:23:58;100744.19;;;4.33;100.00
1207;BME280;593;53.184;8.216;2022-11-20T05:26:23;100734.44;;;4.32;100.00
1207;BME280;593;53.184;8.216;2022-11-20T05:28:49;100733.63;;;4.31;100.00
1207;BME280;593;53.184;8.216;2022-11-20T05:31:17;100723.94;;;4.30;100.00
1207;BME280;593;53.184;8.216;2022-11-20T05:33:44;100724.72;;;4.31;100.00
1207;BME280;593;53.184;8.216;2022-11-20T05:36:11;100725.22;;;4.28;100.00
1207;BME280;593;53.184;8.216;2022-11-20T05:38:37;100719.28;;;4.26;100.00
1207;BME280;593;53.184;8.216;2022-11-20T05:41:07;100716.09;;;4.29;100.00
1207;BME280;593;53.184;8.216;2022-11-20T05:43:37;100720.66;;;4.28;100.00
1207;BME280;593;53.184;8.216;2022-11-20T05:46:03;100707.22;;;4.28;100.00
1207;BME280;593;53.184;8.216;2022-11-20T05:48:28;100701.84;;;4.28;100.00
1207;BME280;593;53.184;8.216;2022-11-20T05:50:54;100709.41;;;4.31;100.00
1207;BME280;593;53.184;8.216;2022-11-20T05:53:19;100698.88;;;4.30;100.00
1207;BME280;593;53.184;8.216;2022-11-20T05:55:44;100695.13;;;4.31;100.00
1207;BME280;593;53.184;8.216;2022-11-20T05:58:10;100694.91;;;4.32;100.00
1207;BME280;593;53.184;8.216;2022-11-20T06:00:35;100689.88;;;4.24;100.00
1207;BME280;593;53.184;8.216;2022-11-20T06:03:01;100699.47;;;4.32;100.00
1207;BME280;593;53.184;8.216;2022-11-20T06:05:27;100697.81;;;4.31;100.00
1207;BME280;593;53.184;8.216;2022-11-20T06:07:52;100700.50;;;4.31;100.00
1207;BME280;593;53.184;8.216;2022-11-20T06:10:17;100699.47;;;4.32;100.00
1207;BME280;593;53.184;8.216;2022-11-20T06:12:43;100687.53;;;4.28;100.00
1207;BME280;593;53.184;8.216;2022-11-20T06:15:09;100689.50;;;4.32;100.00
1207;BME280;593;53.184;8.216;2022-11-20T06:17:34;100695.13;;;4.31;100.00
1207;BME280;593;53.184;8.216;2022-11-20T06:19:59;100693.75;;;4.28;100.00
1207;BME280;593;53.184;8.216;2022-11-20T06:22:25;100702.16;;;4.32;100.00
1207;BME280;593;53.184;8.216;2022-11-20T06:24:50;100688.03;;;4.25;100.00
1207;BME280;593;53.184;8.216;2022-11-20T06:27:16;100692.09;;;4.27;100.00
1207;BME280;593;53.184;8.216;2022-11-20T06:29:41;100691.53;;;4.25;100.00
1207;BME280;593;53.184;8.216;2022-11-20T06:32:07;100692.09;;;4.27;100.00
1207;BME280;593;53.184;8.216;2022-11-20T06:34:32;100693.41;;;4.25;100.00
1207;BME280;593;53.184;8.216;2022-11-20T06:36:57;100694.22;;;4.25;100.00
1207;BME280;593;53.184;8.216;2022-11-20T06:39:23;100691.53;;;4.25;100.00
1207;BME280;593;53.184;8.216;2022-11-20T06:41:48;100699.63;;;4.25;100.00
1207;BME280;593;53.184;8.216;2022-11-20T06:44:14;100702.31;;;4.25;100.00
1207;BME280;593;53.184;8.216;2022-11-20T06:46:40;100688.19;;;4.18;100.00
1207;BME280;593;53.184;8.216;2022-11-20T06:49:05;100695.75;;;4.21;100.00
1207;BME280;593;53.184;8.216;2022-11-20T06:51:31;100703.50;;;4.18;100.00
1207;BME280;593;53.184;8.216;2022-11-20T06:53:56;100702.69;;;4.17;100.00
1207;BME280;593;53.184;8.216;2022-11-20T06:56:21;100697.53;;;4.16;100.00
1207;BME280;593;53.184;8.216;2022-11-20T06:58:47;100705.38;;;4.17;100.00
1207;BME280;593;53.184;8.216;2022-11-20T07:01:14;100704.78;;;4.15;100.00
1207;BME280;593;53.184;8.216;2022-11-20T07:03:40;100685.13;;;4.15;100.00
1207;BME280;593;53.184;8.216;2022-11-20T07:06:06;100697.03;;;4.19;100.00
1207;BME280;593;53.184;8.216;2022-11-20T07:08:32;100705.13;;;4.19;100.00
1207;BME280;593;53.184;8.216;2022-11-20T07:10:59;100697.19;;;4.12;100.00
1207;BME280;593;53.184;8.216;2022-11-20T07:13:26;100703.41;;;4.13;100.00
1207;BME280;593;53.184;8.216;2022-11-20T07:15:52;100707.25;;;4.17;100.00
1207;BME280;593;53.184;8.216;2022-11-20T07:18:17;100707.00;;;4.18;100.00
1207;BME280;593;53.184;8.216;2022-11-20T07:20:43;100702.09;;;4.15;100.00
1207;BME280;593;53.184;8.216;2022-11-20T07:23:08;100704.78;;;4.15;100.00
1207;BME280;593;53.184;8.216;2022-11-20T07:25:33;100701.53;;;4.13;100.00
1207;BME280;593;53.184;8.216;2022-11-20T07:28:00;100708.78;;;4.13;100.00
1207;BME280;593;53.184;8.216;2022-11-20T07:30:28;100700.34;;;4.09;100.00
1207;BME280;593;53.184;8.216;2022-11-20T07:32:54;100706.91;;;4.13;100.00
1207;BME280;593;53.184;8.216;2022-11-20T07:35:20;100701.19;;;4.10;100.00
1207;BME280;593;53.184;8.216;2022-11-20T07:37:46;100707.13;;;4.12;100.00
1207;BME280;593;53.184;8.216;2022-11-20T07:40:14;100702.47;;;4.07;100.00
1207;BME280;593;53.184;8.216;2022-11-20T07:42:47;100704.59;;;4.05;100.00
1207;BME280;593;53.184;8.216;2022-11-20T07:45:12;100704.91;;;4.09;100.00
1207;BME280;593;53.184;8.216;2022-11-20T07:47:38;100704.91;;;4.09;100.00
1207;BME280;593;53.184;8.216;2022-11-20T07:50:03;100708.44;;;4.09;100.00
1207;BME280;593;53.184;8.216;2022-11-20T07:52:29;100704.59;;;4.05;100.00
1207;BME280;593;53.184;8.216;2022-11-20T07:54:54;100705.53;;;4.11;100.00
1207;BME280;593;53.184;8.216;2022-11-20T07:57:19;100710.91;;;4.11;100.00
1207;BME280;593;53.184;8.216;2022-11-20T07:59:45;100710.91;;;4.11;100.00
1207;BME280;593;53.184;8.216;2022-11-20T08:02:11;100701.19;;;4.10;100.00
1207;BME280;593;53.184;8.216;2022-11-20T08:04:36;100696.75;;;4.04;100.00
1207;BME280;593;53.184;8.216;2022-11-20T08:07:02;100700.94;;;4.11;100.00
1207;BME280;593;53.184;8.216;2022-11-20T08:09:27;100692.84;;;4.11;100.00
1207;BME280;593;53.184;8.216;2022-11-20T08:11:54;100699.53;;;4.09;100.00
1207;BME280;593;53.184;8.216;2022-11-20T08:14:37;100694.88;;;4.04;100.00
1207;BME280;593;53.184;8.216;2022-11-20T08:17:03;100698.75;;;4.08;100.00
1207;BME280;593;53.184;8.216;2022-11-20T08:19:28;100701.75;;;4.12;100.00
1207;BME280;593;53.184;8.216;2022-11-20T08:21:54;100707.72;;;4.14;100.00
1207;BME280;593;53.184;8.216;2022-11-20T08:24:20;100707.72;;;4.14;100.00
1207;BME280;593;53.184;8.216;2022-11-20T08:26:45;100706.09;;;4.13;100.00
1207;BME280;593;53.184;8.216;2022-11-20T08:29:11;100712.03;;;4.15;100.00
1207;BME280;593;53.184;8.216;2022-11-20T08:31:37;100709.72;;;4.18;100.00
1207;BME280;593;53.184;8.216;2022-11-20T08:34:03;100706.75;;;4.20;100.00
1207;BME280;593;53.184;8.216;2022-11-20T08:36:36;100703.03;;;4.21;100.00
1207;BME280;593;53.184;8.216;2022-11-20T08:39:10;100699.97;;;4.17;100.00
1207;BME280;593;53.184;8.216;2022-11-20T08:41:36;100709.81;;;4.23;100.00
1207;BME280;593;53.184;8.216;2022-11-20T08:44:03;100701.47;;;4.25;100.00
1207;BME280;593;53.184;8.216;2022-11-20T08:46:40;100708.72;;;4.24;100.00
1207;BME280;593;53.184;8.216;2022-11-20T08:49:13;100704.16;;;4.25;100.00
1207;BME280;593;53.184;8.216;2022-11-20T08:51:39;100706.28;;;4.23;100.00
1207;BME280;593;53.184;8.216;2022-11-20T08:54:05;100707.91;;;4.24;100.00
1207;BME280;593;53.184;8.216;2022-11-20T08:56:32;100693.88;;;4.22;100.00
1207;BME280;593;53.184;8.216;2022-11-20T08:58:58;100706.63;;;4.26;100.00
1207;BME280;593;53.184;8.216;2022-11-20T09:01:27;100699.72;;;4.30;100.00
1207;BME280;593;53.184;8.216;2022-11-20T09:03:55;100701.91;;;4.33;100.00
1207;BME280;593;53.184;8.216;2022-11-20T09:06:21;100703.78;;;4.33;100.00
1207;BME280;593;53.184;8.216;2022-11-20T09:08:47;100711.88;;;4.33;100.00
1207;BME280;593;53.184;8.216;2022-11-20T09:11:16;100710.56;;;4.35;100.00
1207;BME280;593;53.184;8.216;2022-11-20T09:13:41;100710.31;;;4.37;100.00
1207;BME280;593;53.184;8.216;2022-11-20T09:16:08;100709.28;;;4.38;100.00
1207;BME280;593;53.184;8.216;2022-11-20T09:18:34;100701.91;;;4.33;100.00
1207;BME280;593;53.184;8.216;2022-11-20T09:21:06;100705.50;;;4.39;100.00
1207;BME280;593;53.184;8.216;2022-11-20T09:23:34;100707.38;;;4.38;100.00
1207;BME280;593;53.184;8.216;2022-11-20T09:26:10;100715.56;;;4.43;100.00
1207;BME280;593;53.184;8.216;2022-11-20T09:28:36;100708.06;;;4.45;100.00
1207;BME280;593;53.184;8.216;2022-11-20T09:31:08;100710.50;;;4.47;100.00
1207;BME280;593;53.184;8.216;2022-11-20T09:33:34;100713.19;;;4.47;100.00
1207;BME280;593;53.184;8.216;2022-11-20T09:36:03;100717.28;;;4.49;100.00
1207;BME280;593;53.184;8.216;2022-11-20T09:38:29;100718.13;;;4.50;100.00
1207;BME280;593;53.184;8.216;2022-11-20T09:41:03;100708.16;;;4.50;100.00
1207;BME280;593;53.184;8.216;2022-11-20T09:43:42;100714.94;;;4.53;100.00
1207;BME280;593;53.184;8.216;2022-11-20T09:51:34;100714.44;;;4.56;100.00
1207;BME280;593;53.184;8.216;2022-11-20T09:54:20;100713.41;;;4.57;100.00
1207;BME280;593;53.184;8.216;2022-11-20T09:56:54;100705.31;;;4.57;100.00
1207;BME280;593;53.184;8.216;2022-11-20T09:59:29;100704.25;;;4.58;100.00
1207;BME280;593;53.184;8.216;2022-11-20T10:01:59;100702.38;;;4.59;100.00
1207;BME280;593;53.184;8.216;2022-11-20T10:04:25;100700.28;;;4.61;100.00
1207;BME280;593;53.184;8.216;2022-11-20T10:09:34;100697.31;;;4.62;100.00
1207;BME280;593;53.184;8.216;2022-11-20T10:14:43;100701.75;;;4.68;100.00
1207;BME280;593;53.184;8.216;2022-11-20T10:25:44;100682.91;;;4.68;100.00
1207;BME280;593;53.184;8.216;2022-11-20T10:28:27;100682.38;;;4.71;100.00
1207;BME280;593;53.184;8.216;2022-11-20T10:31:00;100684.84;;;4.73;100.00
1207;BME280;593;53.184;8.216;2022-11-20T10:33:29;100675.38;;;4.70;100.00
1207;BME280;593;53.184;8.216;2022-11-20T10:36:17;100674.16;;;4.78;100.00
1207;BME280;593;53.184;8.216;2022-11-20T10:38:56;100673.91;;;4.79;100.00
1207;BME280;593;53.184;8.216;2022-11-20T10:41:28;100676.59;;;4.79;100.00
1207;BME280;593;53.184;8.216;2022-11-20T10:44:17;100669.09;;;4.81;99.57
1207;BME280;593;53.184;8.216;2022-11-20T10:47:04;100666.91;;;4.78;99.62
1207;BME280;593;53.184;8.216;2022-11-20T10:49:30;100671.31;;;4.84;99.25
1207;BME280;593;53.184;8.216;2022-11-20T10:57:07;100663.31;;;4.89;98.15
1207;BME280;593;53.184;8.216;2022-11-20T11:00:00;100669.50;;;4.90;98.25
1207;BME280;593;53.184;8.216;2022-11-20T11:05:10;100658.00;;;4.94;97.66
1207;BME280;593;53.184;8.216;2022-11-20T11:07:39;100658.56;;;4.96;96.95
1207;BME280;593;53.184;8.216;2022-11-20T11:10:22;100652.69;;;4.99;96.82
1207;BME280;593;53.184;8.216;2022-11-20T11:12:49;100660.53;;;5.01;95.90
1207;BME280;593;53.184;8.216;2022-11-20T11:15:26;100660.84;;;5.04;95.20
1207;BME280;593;53.184;8.216;2022-11-20T11:17:51;100658.41;;;5.03;94.84
1207;BME280;593;53.184;8.216;2022-11-20T11:20:19;100651.16;;;5.03;94.13
1207;BME280;593;53.184;8.216;2022-11-20T11:22:52;100653.31;;;5.06;93.79
1207;BME280;593;53.184;8.216;2022-11-20T11:25:29;100652.34;;;5.12;92.91
1207;BME280;593;53.184;8.216;2022-11-20T11:27:58;100648.84;;;5.12;92.77
1207;BME280;593;53.184;8.216;2022-11-20T11:30:25;100651.88;;;5.15;92.76
1207;BME280;593;53.184;8.216;2022-11-20T11:32:51;100657.81;;;5.17;92.75
1207;BME280;593;53.184;8.216;2022-11-20T11:35:28;100649.47;;;5.19;91.54
1207;BME280;593;53.184;8.216;2022-11-20T11:38:17;100641.38;;;5.19;91.83
1207;BME280;593;53.184;8.216;2022-11-20T11:40:46;100650.03;;;5.21;91.10
1207;BME280;593;53.184;8.216;2022-11-20T11:43:20;100645.47;;;5.22;91.50
1207;BME280;593;53.184;8.216;2022-11-20T11:46:26;100641.72;;;5.23;90.35
1207;BME280;593;53.184;8.216;2022-11-20T11:49:00;100630.94;;;5.23;89.78
1207;BME280;593;53.184;8.216;2022-11-20T11:52:17;100623.97;;;5.27;89.50
1207;BME280;593;53.184;8.216;2022-11-20T11:54:21;100620.44;;;5.26;89.95
1207;BME280;593;53.184;8.216;2022-11-20T11:56:49;100630.53;;;5.31;89.08
1207;BME280;593;53.184;8.216;2022-11-20T11:59:25;100626.44;;;5.28;88.53
1207;BME280;593;53.184;8.216;2022-11-20T12:01:56;100622.59;;;5.24;88.83
1207;BME280;593;53.184;8.216;2022-11-20T12:06:56;100618.03;;;5.25;88.25
1207;BME280;593;53.184;8.216;2022-11-20T12:09:34;100613.38;;;5.20;87.66
1207;BME280;593;53.184;8.216;2022-11-20T12:12:08;100605.53;;;5.18;87.90
1207;BME280;593;53.184;8.216;2022-11-20T12:14:37;100605.78;;;5.17;88.58
1207;BME280;593;53.184;8.216;2022-11-20T12:17:04;100584.63;;;5.09;88.51
1207;BME280;593;53.184;8.216;2022-11-20T12:19:31;100592.78;;;5.14;88.50
1207;BME280;593;53.184;8.216;2022-11-20T12:24:59;100586.59;;;5.13;89.19
1207;BME280;593;53.184;8.216;2022-11-20T12:27:39;100589.03;;;5.15;88.99
1207;BME280;593;53.184;8.216;2022-11-20T12:30:10;100591.25;;;5.18;88.88
1207;BME280;593;53.184;8.216;2022-11-20T12:41:16;100582.47;;;5.28;89.16
1207;BME280;593;53.184;8.216;2022-11-20T12:44:29;100569.00;;;5.28;89.23
1207;BME280;593;53.184;8.216;2022-11-20T12:55:40;100558.28;;;5.33;88.94
1207;BME280;593;53.184;8.216;2022-11-20T12:58:22;100554.50;;;5.34;89.37
1207;BME280;593;53.184;8.216;2022-11-20T13:06:58;100563.47;;;5.39;89.47
1207;BME280;593;53.184;8.216;2022-11-20T13:09:24;100562.66;;;5.39;89.53
1207;BME280;593;53.184;8.216;2022-11-20T13:12:07;100561.59;;;5.40;89.59
1207;BME280;593;53.184;8.216;2022-11-20T13:14:53;100575.63;;;5.42;90.34
1207;BME280;593;53.184;8.216;2022-11-20T13:19:56;100567.00;;;5.40;89.90
1207;BME280;593;53.184;8.216;2022-11-20T13:22:46;100569.75;;;5.45;89.75
1207;BME280;593;53.184;8.216;2022-11-20T13:25:28;100565.19;;;5.45;89.72
1207;BME280;593;53.184;8.216;2022-11-20T13:27:56;100558.97;;;5.45;89.49
1207;BME280;593;53.184;8.216;2022-11-20T13:30:31;100560.84;;;5.44;89.97
1207;BME280;593;53.184;8.216;2022-11-20T13:33:09;100557.59;;;5.42;89.93
1207;BME280;593;53.184;8.216;2022-11-20T13:35:56;100550.31;;;5.43;89.42
1207;BME280;593;53.184;8.216;2022-11-20T13:38:22;100546.31;;;5.45;89.38
1207;BME280;593;53.184;8.216;2022-11-20T13:40:59;100554.94;;;5.47;89.27
1207;BME280;593;53.184;8.216;2022-11-20T13:43:47;100543.91;;;5.49;89.21
1207;BME280;593;53.184;8.216;2022-11-20T13:46:13;100540.09;;;5.45;89.83
1207;BME280;593;53.184;8.216;2022-11-20T13:48:45;100535.56;;;5.50;88.42
1207;BME280;593;53.184;8.216;2022-11-20T13:51:23;100539.88;;;5.51;88.66
1207;BME280;593;53.184;8.216;2022-11-20T13:54:13;100531.56;;;5.53;88.41
1207;BME280;593;53.184;8.216;2022-11-20T14:02:19;100532.13;;;5.55;88.47
1207;BME280;593;53.184;8.216;2022-11-20T14:04:49;100524.56;;;5.57;88.53
1207;BME280;593;53.184;8.216;2022-11-20T14:07:16;100510.41;;;5.45;87.85
1207;BME280;593;53.184;8.216;2022-11-20T14:10:18;100520.81;;;5.58;88.17
1207;BME280;593;53.184;8.216;2022-11-20T14:12:44;100514.34;;;5.59;87.78
1207;BME280;593;53.184;8.216;2022-11-20T14:15:24;100513.28;;;5.60;88.10
1207;BME280;593;53.184;8.216;2022-11-20T14:17:50;100522.19;;;5.60;88.03
1207;BME280;593;53.184;8.216;2022-11-20T14:20:16;100518.19;;;5.63;87.03
1207;BME280;593;53.184;8.216;2022-11-20T14:22:50;100520.88;;;5.63;87.01
1207;BME280;593;53.184;8.216;2022-11-20T14:27:43;100519.06;;;5.68;86.02
1207;BME280;593;53.184;8.216;2022-11-20T14:30:14;100500.41;;;5.67;85.65
1207;BME280;593;53.184;8.216;2022-11-20T14:32:42;100501.78;;;5.69;85.58
1207;BME280;593;53.184;8.216;2022-11-20T14:35:13;100499.63;;;5.71;84.84
1207;BME280;593;53.184;8.216;2022-11-20T14:37:40;100495.63;;;5.74;85.03
1207;BME280;593;53.184;8.216;2022-11-20T14:40:26;100496.44;;;5.74;85.53
1207;BME280;593;53.184;8.216;2022-11-20T14:42:52;100491.88;;;5.75;84.32
1207;BME280;593;53.184;8.216;2022-11-20T14:45:18;100492.69;;;5.75;84.39
1207;BME280;593;53.184;8.216;2022-11-20T14:47:44;100490.81;;;5.76;84.37